createdAt,value
2022-11-18T00:02:13.932Z,84.35
2022-11-18T00:04:40.370Z,83.77
2022-11-18T00:07:06.848Z,84.22
2022-11-18T00:09:33.199Z,84.29
2022-11-18T00:12:18.045Z,84.11
2022-11-18T00:14:44.373Z,83.82
2022-11-18T00:17:10.744Z,84.11
2022-11-18T00:19:39.442Z,84.33
2022-11-18T00:22:07.895Z,83.92
2022-11-18T00:24:34.588Z,84.11
2022-11-18T00:27:00.979Z,83.64
2022-11-18T00:29:28.277Z,83.87
2022-11-18T00:31:55.951Z,83.81
2022-11-18T00:34:22.537Z,83.92
2022-11-18T00:36:49.002Z,84.05
2022-11-18T00:39:18.839Z,84.21
2022-11-18T00:42:05.042Z,84.17
2022-11-18T00:44:31.751Z,83.70
2022-11-18T00:46:58.564Z,84.24
2022-11-18T00:49:24.947Z,83.80
2022-11-18T00:51:51.592Z,84.21
2022-11-18T00:54:18.221Z,84.29
2022-11-18T00:56:44.532Z,84.21
2022-11-18T00:59:10.913Z,84.04
2022-11-18T01:01:37.582Z,84.38
2022-11-18T01:04:04.209Z,84.54
2022-11-18T01:06:30.554Z,84.57
2022-11-18T01:08:56.954Z,84.15
2022-11-18T01:11:42.042Z,85.07
2022-11-18T01:14:08.411Z,84.52
2022-11-18T01:16:34.800Z,84.56
2022-11-18T01:19:01.136Z,85.00
2022-11-18T01:21:29.187Z,85.02
2022-11-18T01:23:55.647Z,85.17
2022-11-18T01:26:22.132Z,84.50
2022-11-18T01:28:48.494Z,84.90
2022-11-18T01:31:17.463Z,85.54
2022-11-18T01:33:46.154Z,84.84
2022-11-18T01:36:21.401Z,84.32
2022-11-18T01:38:48.500Z,85.05
2022-11-18T01:41:16.172Z,85.01
2022-11-18T01:44:03.552Z,85.97
2022-11-18T01:46:32.746Z,85.71
2022-11-18T01:49:01.270Z,85.95
2022-11-18T01:51:46.412Z,85.94
2022-11-18T01:54:21.215Z,86.11
2022-11-18T01:56:52.377Z,86.33
2022-11-18T01:59:22.467Z,85.90
2022-11-18T02:01:48.918Z,86.02
2022-11-18T02:04:15.684Z,86.14
2022-11-18T02:06:43.929Z,87.09
2022-11-18T02:09:10.513Z,86.41
2022-11-18T02:11:54.035Z,87.05
2022-11-18T02:14:26.750Z,87.34
2022-11-18T02:17:14.403Z,87.87
2022-11-18T02:19:46.880Z,87.67
2022-11-18T02:22:40.350Z,87.13
2022-11-18T02:25:25.471Z,86.55
2022-11-18T02:28:25.307Z,87.20
2022-11-18T02:31:02.100Z,87.69
2022-11-18T02:33:54.276Z,86.58
2022-11-18T02:36:27.411Z,86.31
2022-11-18T02:39:07.332Z,87.25
2022-11-18T02:41:36.463Z,87.09
2022-11-18T02:44:09.382Z,86.86
2022-11-18T02:46:39.268Z,87.13
2022-11-18T02:49:12.461Z,86.82
2022-11-18T02:51:41.785Z,86.62
2022-11-18T02:54:10.313Z,86.45
2022-11-18T02:56:37.480Z,86.62
2022-11-18T02:59:04.780Z,87.69
2022-11-18T03:01:33.947Z,87.36
2022-11-18T03:04:00.705Z,87.91
2022-11-18T03:06:49.838Z,87.84
2022-11-18T03:09:32.699Z,88.40
2022-11-18T03:12:21.506Z,87.85
2022-11-18T03:14:57.023Z,87.77
2022-11-18T03:17:58.951Z,87.77
2022-11-18T03:20:34.407Z,88.42
2022-11-18T03:23:03.730Z,87.94
2022-11-18T03:25:48.405Z,88.43
2022-11-18T03:28:22.877Z,88.15
2022-11-18T03:31:10.503Z,87.98
2022-11-18T03:33:44.949Z,88.05
2022-11-18T03:36:14.018Z,87.41
2022-11-18T03:38:47.837Z,87.10
2022-11-18T03:41:16.688Z,87.67
2022-11-18T03:43:49.860Z,88.34
2022-11-18T03:46:24.489Z,88.37
2022-11-18T03:48:54.404Z,87.14
2022-11-18T03:51:26.344Z,87.08
2022-11-18T03:54:01.189Z,87.19
2022-11-18T03:56:37.057Z,86.84
2022-11-18T03:59:11.698Z,86.89
2022-11-18T04:01:54.069Z,86.99
2022-11-18T04:04:21.484Z,86.83
2022-11-18T04:06:55.262Z,87.63
2022-11-18T04:09:28.141Z,87.22
2022-11-18T04:12:02.599Z,87.58
2022-11-18T04:14:31.868Z,87.71
2022-11-18T04:16:58.305Z,87.79
2022-11-18T04:19:24.624Z,87.83
2022-11-18T04:21:51.368Z,88.14
2022-11-18T04:24:17.764Z,87.50
2022-11-18T04:26:44.166Z,87.87
2022-11-18T04:29:10.475Z,87.91
2022-11-18T04:31:36.939Z,89.17
2022-11-18T04:34:03.297Z,88.68
2022-11-18T04:36:29.785Z,88.59
2022-11-18T04:38:56.116Z,88.35
2022-11-18T04:41:42.492Z,88.35
2022-11-18T04:44:12.927Z,88.83
2022-11-18T04:46:43.239Z,88.66
2022-11-18T04:49:11.265Z,88.74
2022-11-18T04:51:37.635Z,88.36
2022-11-18T04:54:04.085Z,88.48
2022-11-18T04:56:30.923Z,88.63
2022-11-18T04:59:03.228Z,88.44
2022-11-18T05:01:30.644Z,88.60
2022-11-18T05:03:57.412Z,88.27
2022-11-18T05:06:23.823Z,88.15
2022-11-18T05:08:50.336Z,88.51
2022-11-18T05:11:36.988Z,88.82
2022-11-18T05:14:03.331Z,88.98
2022-11-18T05:16:29.724Z,88.75
2022-11-18T05:18:56.049Z,88.64
2022-11-18T05:21:22.460Z,88.71
2022-11-18T05:23:48.785Z,88.64
2022-11-18T05:26:15.197Z,88.98
2022-11-18T05:28:41.527Z,88.88
2022-11-18T05:31:09.772Z,88.87
2022-11-18T05:33:36.443Z,88.64
2022-11-18T05:36:07.726Z,88.80
2022-11-18T05:38:35.100Z,88.74
2022-11-18T05:41:01.975Z,88.64
2022-11-18T05:43:29.086Z,88.72
2022-11-18T05:45:55.632Z,88.94
2022-11-18T05:48:21.997Z,89.28
2022-11-18T05:50:50.335Z,89.06
2022-11-18T05:53:18.650Z,88.67
2022-11-18T05:55:53.436Z,88.87
2022-11-18T05:58:19.845Z,88.88
2022-11-18T06:00:49.675Z,89.31
2022-11-18T06:03:22.243Z,89.17
2022-11-18T06:05:54.608Z,89.43
2022-11-18T06:08:23.009Z,90.35
2022-11-18T06:10:50.868Z,89.55
2022-11-18T06:13:26.423Z,90.05
2022-11-18T06:15:53.199Z,89.73
2022-11-18T06:18:26.121Z,89.87
2022-11-18T06:20:57.692Z,90.27
2022-11-18T06:23:24.116Z,88.91
2022-11-18T06:25:50.584Z,88.83
2022-11-18T06:28:17.984Z,89.81
2022-11-18T06:30:44.412Z,88.97
2022-11-18T06:33:10.863Z,89.70
2022-11-18T06:35:37.259Z,89.53
2022-11-18T06:38:03.743Z,90.18
2022-11-18T06:40:34.439Z,89.36
2022-11-18T06:43:30.510Z,89.25
2022-11-18T06:46:19.477Z,89.13
2022-11-18T06:48:46.180Z,89.24
2022-11-18T06:51:12.520Z,89.73
2022-11-18T06:53:39.082Z,88.64
2022-11-18T06:56:07.791Z,89.14
2022-11-18T06:58:34.543Z,88.81
2022-11-18T07:01:16.408Z,89.27
2022-11-18T07:03:44.293Z,89.20
2022-11-18T07:06:12.907Z,89.15
2022-11-18T07:08:40.814Z,90.22
2022-11-18T07:11:10.797Z,88.19
2022-11-18T07:13:43.196Z,88.66
2022-11-18T07:16:13.030Z,89.19
2022-11-18T07:18:41.685Z,89.71
2022-11-18T07:21:13.490Z,89.93
2022-11-18T07:23:40.196Z,89.39
2022-11-18T07:26:07.214Z,88.56
2022-11-18T07:28:34.069Z,89.44
2022-11-18T07:31:05.814Z,89.64
2022-11-18T07:33:33.612Z,89.42
2022-11-18T07:36:02.233Z,88.19
2022-11-18T07:38:28.891Z,88.33
2022-11-18T07:40:56.064Z,88.38
2022-11-18T07:43:22.398Z,88.42
2022-11-18T07:45:48.778Z,88.52
2022-11-18T07:48:15.198Z,88.64
2022-11-18T07:50:46.884Z,88.65
2022-11-18T07:53:13.612Z,88.30
2022-11-18T07:55:39.969Z,88.78
2022-11-18T07:58:06.403Z,89.02
2022-11-18T08:00:32.815Z,88.69
2022-11-18T08:02:59.230Z,89.05
2022-11-18T08:05:25.614Z,90.19
2022-11-18T08:07:52.102Z,88.52
2022-11-18T08:10:18.440Z,87.80
2022-11-18T08:12:44.814Z,88.21
2022-11-18T08:15:11.161Z,89.97
2022-11-18T08:17:37.483Z,90.26
2022-11-18T08:20:04.046Z,89.97
2022-11-18T08:22:30.450Z,88.92
2022-11-18T08:24:56.813Z,88.64
2022-11-18T08:27:23.262Z,88.42
2022-11-18T08:29:49.621Z,88.43
2022-11-18T08:32:15.970Z,86.75
2022-11-18T08:34:42.335Z,86.76
2022-11-18T08:37:08.832Z,86.82
2022-11-18T08:39:35.337Z,86.43
2022-11-18T08:42:01.665Z,87.32
2022-11-18T08:44:28.099Z,88.14
2022-11-18T08:46:54.512Z,86.94
2022-11-18T08:49:21.199Z,85.31
2022-11-18T08:51:47.723Z,84.07
2022-11-18T08:54:14.111Z,84.26
2022-11-18T08:56:40.500Z,84.37
2022-11-18T08:59:07.377Z,84.08
2022-11-18T09:01:33.920Z,83.23
2022-11-18T09:04:00.876Z,81.74
2022-11-18T09:06:27.348Z,82.61
2022-11-18T09:08:53.870Z,81.22
2022-11-18T09:11:22.971Z,80.63
2022-11-18T09:14:39.082Z,79.19
2022-11-18T09:16:40.593Z,76.83
2022-11-18T09:19:32.055Z,75.30
2022-11-18T09:21:53.368Z,69.82
2022-11-18T09:24:20.242Z,68.09
2022-11-18T09:26:48.083Z,66.24
2022-11-18T09:29:14.413Z,67.16
2022-11-18T09:31:40.793Z,66.63
2022-11-18T09:34:07.238Z,67.58
2022-11-18T09:36:33.589Z,66.90
2022-11-18T09:38:59.969Z,63.98
2022-11-18T09:41:32.291Z,62.20
2022-11-18T09:44:17.439Z,62.68
2022-11-18T09:46:55.988Z,62.77
2022-11-18T09:49:29.391Z,61.33
2022-11-18T09:51:57.586Z,57.19
2022-11-18T09:54:26.883Z,56.96
2022-11-18T09:56:55.479Z,57.75
2022-11-18T09:59:25.299Z,55.23
2022-11-18T10:01:55.455Z,54.90
2022-11-18T10:04:22.128Z,53.90
2022-11-18T10:06:49.959Z,52.92
2022-11-18T10:09:25.120Z,52.21
2022-11-18T10:11:54.624Z,52.25
2022-11-18T10:14:34.106Z,52.61
2022-11-18T10:17:12.211Z,53.61
2022-11-18T10:19:52.516Z,54.77
2022-11-18T10:22:37.996Z,57.15
2022-11-18T10:25:13.384Z,56.32
2022-11-18T10:27:42.278Z,56.30
2022-11-18T10:30:13.431Z,55.43
2022-11-18T10:32:56.379Z,53.81
2022-11-18T10:35:26.373Z,53.18
2022-11-18T10:38:08.130Z,50.69
2022-11-18T10:40:46.804Z,49.41
2022-11-18T10:43:45.241Z,45.74
2022-11-18T10:46:19.448Z,44.92
2022-11-18T10:48:45.897Z,46.81
2022-11-18T10:51:25.029Z,51.90
2022-11-18T10:53:51.410Z,56.88
2022-11-18T10:56:17.841Z,58.19
2022-11-18T10:58:48.588Z,59.43
2022-11-18T11:01:26.259Z,59.27
2022-11-18T11:03:56.884Z,57.93
2022-11-18T11:06:26.047Z,59.01
2022-11-18T11:08:56.103Z,58.07
2022-11-18T11:11:54.696Z,56.32
2022-11-18T11:14:27.160Z,57.88
2022-11-18T11:17:00.128Z,57.80
2022-11-18T11:19:50.952Z,59.50
2022-11-18T11:22:17.604Z,59.28
2022-11-18T11:24:46.006Z,59.98
2022-11-18T11:30:08.320Z,60.18
2022-11-18T11:32:59.293Z,61.47
2022-11-18T11:35:33.186Z,62.20
2022-11-18T11:38:04.546Z,66.20
2022-11-18T11:40:43.897Z,64.57
2022-11-18T11:43:44.368Z,63.53
2022-11-18T11:46:37.716Z,61.33
2022-11-18T11:49:18.280Z,56.12
2022-11-18T11:51:53.387Z,52.84
2022-11-18T11:54:29.247Z,55.15
2022-11-18T11:57:03.786Z,57.16
2022-11-18T11:59:43.440Z,55.41
2022-11-18T12:02:29.652Z,54.47
2022-11-18T12:05:03.073Z,49.42
2022-11-18T12:07:42.427Z,44.88
2022-11-18T12:10:21.265Z,44.19
2022-11-18T12:12:53.802Z,43.06
2022-11-18T12:15:26.711Z,43.04
2022-11-18T12:18:12.581Z,41.24
2022-11-18T12:20:38.944Z,42.83
2022-11-18T12:23:15.800Z,45.09
2022-11-18T12:25:47.829Z,49.19
2022-11-18T12:28:38.265Z,51.40
2022-11-18T12:31:19.574Z,54.67
2022-11-18T12:33:55.564Z,58.44
2022-11-18T12:36:33.726Z,58.45
2022-11-18T12:39:26.022Z,60.60
2022-11-18T12:42:17.399Z,61.03
2022-11-18T12:44:49.382Z,60.70
2022-11-18T12:47:36.424Z,60.91
2022-11-18T12:50:02.916Z,56.77
2022-11-18T12:52:29.474Z,51.35
2022-11-18T12:55:00.048Z,51.10
2022-11-18T12:57:34.321Z,50.19
2022-11-18T13:00:23.066Z,48.55
2022-11-18T13:02:54.447Z,48.46
2022-11-18T13:05:22.411Z,52.66
2022-11-18T13:08:14.955Z,55.78
2022-11-18T13:10:49.344Z,58.49
2022-11-18T13:13:34.334Z,59.50
2022-11-18T13:16:37.859Z,61.46
2022-11-18T13:19:04.716Z,62.73
2022-11-18T13:21:49.812Z,64.11
2022-11-18T13:24:19.485Z,64.54
2022-11-18T13:26:47.626Z,65.98
2022-11-18T13:29:35.794Z,67.23
2022-11-18T13:32:02.268Z,65.66
2022-11-18T13:34:30.630Z,66.08
2022-11-18T13:36:59.840Z,66.26
2022-11-18T13:39:28.821Z,66.75
2022-11-18T13:42:07.264Z,66.44
2022-11-18T13:44:36.202Z,66.99
2022-11-18T13:47:20.434Z,66.81
2022-11-18T13:49:52.299Z,67.67
2022-11-18T13:52:23.816Z,69.94
2022-11-18T13:54:52.561Z,70.33
2022-11-18T13:57:22.025Z,71.60
2022-11-18T13:59:49.957Z,71.42
2022-11-18T14:02:17.628Z,73.05
2022-11-18T14:04:57.556Z,73.01
2022-11-18T14:07:32.923Z,74.36
2022-11-18T14:10:15.415Z,75.17
2022-11-18T14:12:41.824Z,75.89
2022-11-18T14:15:42.088Z,77.23
2022-11-18T14:18:30.133Z,77.21
2022-11-18T14:20:57.139Z,77.26
2022-11-18T14:23:30.020Z,77.91
2022-11-18T14:25:57.272Z,77.57
2022-11-18T14:28:28.313Z,78.92
2022-11-18T14:30:59.236Z,78.04
2022-11-18T14:33:29.439Z,78.18
2022-11-18T14:36:01.556Z,79.13
2022-11-18T14:41:44.253Z,79.32
2022-11-18T14:44:13.143Z,80.76
2022-11-18T14:46:41.258Z,79.85
2022-11-18T14:49:14.397Z,79.98
2022-11-18T14:51:40.772Z,79.97
2022-11-18T14:54:07.113Z,79.91
2022-11-18T14:56:34.982Z,80.21
2022-11-18T14:59:01.396Z,80.06
2022-11-18T15:01:30.974Z,80.41
2022-11-18T15:03:57.851Z,80.78
2022-11-18T15:06:24.711Z,80.86
2022-11-18T15:08:52.831Z,81.55
2022-11-18T15:11:19.394Z,81.70
2022-11-18T15:13:46.136Z,82.08
2022-11-18T15:16:20.858Z,82.46
2022-11-18T15:18:50.489Z,82.50
2022-11-18T15:21:17.839Z,83.01
2022-11-18T15:23:44.224Z,83.58
2022-11-18T15:26:44.311Z,83.29
2022-11-18T15:29:18.155Z,83.67
2022-11-18T15:31:44.887Z,84.21
2022-11-18T15:34:11.252Z,83.77
2022-11-18T15:36:37.710Z,84.04
2022-11-18T15:39:04.103Z,84.26
2022-11-18T15:41:31.981Z,84.07
2022-11-18T15:43:59.726Z,84.11
2022-11-18T15:46:28.018Z,84.91
2022-11-18T15:48:55.666Z,85.80
2022-11-18T15:51:22.967Z,85.12
2022-11-18T15:53:49.479Z,85.29
2022-11-18T15:56:18.787Z,84.44
2022-11-18T15:58:45.992Z,85.08
2022-11-18T16:01:12.448Z,85.12
2022-11-18T16:03:38.837Z,85.30
2022-11-18T16:06:05.454Z,85.28
2022-11-18T16:08:31.841Z,85.67
2022-11-18T16:11:17.512Z,85.62
2022-11-18T16:13:43.940Z,86.42
2022-11-18T16:16:21.268Z,85.70
2022-11-18T16:18:47.716Z,85.69
2022-11-18T16:21:14.831Z,85.78
2022-11-18T16:23:41.259Z,85.69
2022-11-18T16:26:07.687Z,85.89
2022-11-18T16:28:34.038Z,85.39
2022-11-18T16:31:18.741Z,85.68
2022-11-18T16:33:45.232Z,85.63
2022-11-18T16:36:11.635Z,85.60
2022-11-18T16:38:38.061Z,85.71
2022-11-18T16:41:24.475Z,85.65
2022-11-18T16:43:50.799Z,85.61
2022-11-18T16:46:17.180Z,86.04
2022-11-18T16:48:43.543Z,85.64
2022-11-18T16:51:17.018Z,86.08
2022-11-18T16:53:43.604Z,86.48
2022-11-18T16:56:09.981Z,86.89
2022-11-18T16:58:36.305Z,86.99
2022-11-18T17:01:24.613Z,86.41
2022-11-18T17:03:54.213Z,86.07
2022-11-18T17:06:22.301Z,86.93
2022-11-18T17:08:49.089Z,86.66
2022-11-18T17:11:15.992Z,87.37
2022-11-18T17:13:42.884Z,87.41
2022-11-18T17:16:14.942Z,87.06
2022-11-18T17:18:42.022Z,87.44
2022-11-18T17:21:12.110Z,87.05
2022-11-18T17:23:40.240Z,87.37
2022-11-18T17:26:08.525Z,87.55
2022-11-18T17:28:36.555Z,88.09
2022-11-18T17:31:06.163Z,88.15
2022-11-18T17:33:32.956Z,87.77
2022-11-18T17:36:07.734Z,87.58
2022-11-18T17:38:36.307Z,87.56
2022-11-18T17:41:03.306Z,87.58
2022-11-18T17:43:30.230Z,87.90
2022-11-18T17:45:58.681Z,87.91
2022-11-18T17:48:26.810Z,87.64
2022-11-18T17:50:53.645Z,87.52
2022-11-18T17:53:20.789Z,87.67
2022-11-18T17:55:47.239Z,87.27
2022-11-18T17:58:13.960Z,87.50
2022-11-18T18:00:40.681Z,87.22
2022-11-18T18:03:07.052Z,86.82
2022-11-18T18:05:33.525Z,87.07
2022-11-18T18:08:00.112Z,87.56
2022-11-18T18:10:27.787Z,88.09
2022-11-18T18:13:12.812Z,87.91
2022-11-18T18:15:39.135Z,87.53
2022-11-18T18:18:06.364Z,87.74
2022-11-18T18:20:34.829Z,87.62
2022-11-18T18:23:01.176Z,88.42
2022-11-18T18:25:27.562Z,88.46
2022-11-18T18:27:53.926Z,87.99
2022-11-18T18:30:20.255Z,88.52
2022-11-18T18:32:52.043Z,88.33
2022-11-18T18:35:18.890Z,88.37
2022-11-18T18:37:45.207Z,88.84
2022-11-18T18:40:12.233Z,88.34
2022-11-18T18:42:38.554Z,88.18
2022-11-18T18:45:23.933Z,88.50
2022-11-18T18:47:50.365Z,88.05
2022-11-18T18:50:17.082Z,88.88
2022-11-18T18:52:43.460Z,89.08
2022-11-18T18:55:09.869Z,89.62
2022-11-18T18:57:36.361Z,90.56
2022-11-18T19:00:03.349Z,90.18
2022-11-18T19:02:29.736Z,91.42
2022-11-18T19:04:56.154Z,91.49
2022-11-18T19:07:22.930Z,91.30
2022-11-18T19:09:49.446Z,91.18
2022-11-18T19:12:34.488Z,90.91
2022-11-18T19:15:00.946Z,91.25
2022-11-18T19:17:27.444Z,91.41
2022-11-18T19:20:12.658Z,91.17
2022-11-18T19:22:39.125Z,91.36
2022-11-18T19:25:05.871Z,92.20
2022-11-18T19:27:32.320Z,92.04
2022-11-18T19:29:58.745Z,92.04
2022-11-18T19:32:25.148Z,91.72
2022-11-18T19:34:51.624Z,91.99
2022-11-18T19:37:18.013Z,91.80
2022-11-18T19:39:44.566Z,93.00
2022-11-18T19:42:11.215Z,92.21
2022-11-18T19:44:38.418Z,92.50
2022-11-18T19:47:04.946Z,92.68
2022-11-18T19:49:31.314Z,92.85
2022-11-18T19:51:57.626Z,92.56
2022-11-18T19:54:24.037Z,92.58
2022-11-18T19:56:50.372Z,92.74
2022-11-18T19:59:17.037Z,92.73
2022-11-18T20:01:43.829Z,92.68
2022-11-18T20:04:10.256Z,92.61
2022-11-18T20:06:37.610Z,92.88
2022-11-18T20:09:07.873Z,92.51
2022-11-18T20:11:34.658Z,92.48
2022-11-18T20:14:01.595Z,92.25
2022-11-18T20:16:28.110Z,92.12
2022-11-18T20:19:07.779Z,92.22
2022-11-18T20:21:38.852Z,91.86
2022-11-18T20:24:06.224Z,92.56
2022-11-18T20:26:35.066Z,92.80
2022-11-18T20:29:01.681Z,92.72
2022-11-18T20:31:28.514Z,92.99
2022-11-18T20:33:56.598Z,93.15
2022-11-18T20:36:26.089Z,93.20
2022-11-18T20:38:57.698Z,92.75
2022-11-18T20:41:25.287Z,92.60
2022-11-18T20:43:51.820Z,92.51
2022-11-18T20:46:21.455Z,91.96
2022-11-18T20:48:49.074Z,92.34
2022-11-18T20:51:24.658Z,92.04
2022-11-18T20:53:52.497Z,91.91
2022-11-18T20:56:21.600Z,92.35
2022-11-18T20:58:48.838Z,92.58
2022-11-18T21:01:18.005Z,92.79
2022-11-18T21:03:55.523Z,92.86
2022-11-18T21:06:24.419Z,93.11
2022-11-18T21:08:55.606Z,92.46
2022-11-18T21:11:22.026Z,91.90
2022-11-18T21:14:06.966Z,92.05
2022-11-18T21:16:33.397Z,91.33
2022-11-18T21:18:59.854Z,91.22
2022-11-18T21:21:44.486Z,90.98
2022-11-18T21:24:40.256Z,91.20
2022-11-18T21:27:06.725Z,91.28
2022-11-18T21:29:33.505Z,91.95
2022-11-18T21:32:01.473Z,91.67
2022-11-18T21:34:28.618Z,91.87
2022-11-18T21:36:55.527Z,91.39
2022-11-18T21:39:23.628Z,91.30
2022-11-18T21:41:55.187Z,91.50
2022-11-18T21:44:22.434Z,91.62
2022-11-18T21:46:48.828Z,92.33
2022-11-18T21:49:15.165Z,91.76
2022-11-18T21:51:41.602Z,92.30
2022-11-18T21:54:08.606Z,91.47
2022-11-18T21:56:35.032Z,92.43
2022-11-18T21:59:02.503Z,91.87
2022-11-18T22:01:31.605Z,92.34
2022-11-18T22:04:00.714Z,91.67
2022-11-18T22:06:29.993Z,91.96
2022-11-18T22:08:56.639Z,91.63
2022-11-18T22:11:24.086Z,91.30
2022-11-18T22:13:51.890Z,91.23
2022-11-18T22:16:20.371Z,91.33
2022-11-18T22:18:53.065Z,91.39
2022-11-18T22:21:22.810Z,91.65
2022-11-18T22:23:49.294Z,91.32
2022-11-18T22:26:21.146Z,91.47
2022-11-18T22:28:53.469Z,91.34
2022-11-18T22:31:21.132Z,91.76
2022-11-18T22:33:51.578Z,91.66
2022-11-18T22:36:20.378Z,91.69
2022-11-18T22:38:47.190Z,91.65
2022-11-18T22:41:35.808Z,91.35
2022-11-18T22:44:07.427Z,91.61
2022-11-18T22:46:35.517Z,91.53
2022-11-18T22:49:02.009Z,91.66
2022-11-18T22:51:28.582Z,91.89
2022-11-18T22:54:15.828Z,91.43
2022-11-18T22:56:41.890Z,91.36
2022-11-18T22:59:10.065Z,91.19
2022-11-18T23:01:37.022Z,91.54
2022-11-18T23:04:03.471Z,91.15
2022-11-18T23:06:29.877Z,90.82
2022-11-18T23:08:56.395Z,90.80
2022-11-18T23:11:41.835Z,90.16
2022-11-18T23:14:09.964Z,90.50
2022-11-18T23:16:39.011Z,90.70
2022-11-18T23:19:08.020Z,90.88
2022-11-18T23:21:34.416Z,90.92
2022-11-18T23:24:00.949Z,91.18
2022-11-18T23:26:28.762Z,91.13
2022-11-18T23:28:55.659Z,91.15
2022-11-18T23:31:24.840Z,90.23
2022-11-18T23:33:51.571Z,90.64
2022-11-18T23:36:19.325Z,90.49
2022-11-18T23:38:46.282Z,90.82
2022-11-18T23:41:15.073Z,91.10
2022-11-18T23:43:43.168Z,90.95
2022-11-18T23:46:09.842Z,91.10
2022-11-18T23:48:38.375Z,91.00
2022-11-18T23:51:25.142Z,90.28
2022-11-18T23:53:54.909Z,90.72
2022-11-18T23:56:23.679Z,91.76
2022-11-18T23:58:52.057Z,90.77
